sensor_id;sensor_type;location;lat;lon;timestamp;P1;durP1;ratioP1;P2;durP2;ratioP2
20609;SDS011;10463;52.378;9.688;2023-08-31T00:02:19;1.97;;;1.70;;
20609;SDS011;10463;52.378;9.688;2023-08-31T00:05:04;2.13;;;1.43;;
20609;SDS011;10463;52.378;9.688;2023-08-31T00:07:50;2.67;;;2.20;;
20609;SDS011;10463;52.378;9.688;2023-08-31T00:10:35;2.37;;;1.70;;
20609;SDS011;10463;52.378;9.688;2023-08-31T00:13:20;2.50;;;1.83;;
20609;SDS011;10463;52.378;9.688;2023-08-31T00:16:04;3.17;;;1.90;;
20609;SDS011;10463;52.378;9.688;2023-08-31T00:18:49;2.47;;;1.40;;
20609;SDS011;10463;52.378;9.688;2023-08-31T00:21:34;2.03;;;1.70;;
20609;SDS011;10463;52.378;9.688;2023-08-31T00:24:19;2.20;;;1.60;;
20609;SDS011;10463;52.378;9.688;2023-08-31T00:27:05;2.90;;;1.70;;
20609;SDS011;10463;52.378;9.688;2023-08-31T00:29:50;2.97;;;1.63;;
20609;SDS011;10463;52.378;9.688;2023-08-31T00:32:35;2.80;;;1.87;;
20609;SDS011;10463;52.378;9.688;2023-08-31T00:35:19;2.00;;;1.67;;
20609;SDS011;10463;52.378;9.688;2023-08-31T00:38:04;3.23;;;2.30;;
20609;SDS011;10463;52.378;9.688;2023-08-31T00:40:50;4.03;;;1.90;;
20609;SDS011;10463;52.378;9.688;2023-08-31T00:43:35;2.33;;;1.90;;
20609;SDS011;10463;52.378;9.688;2023-08-31T00:46:19;2.90;;;1.90;;
20609;SDS011;10463;52.378;9.688;2023-08-31T00:49:04;2.43;;;1.53;;
20609;SDS011;10463;52.378;9.688;2023-08-31T00:51:48;2.00;;;1.70;;
20609;SDS011;10463;52.378;9.688;2023-08-31T00:54:35;3.00;;;2.10;;
20609;SDS011;10463;52.378;9.688;2023-08-31T00:57:22;2.47;;;2.10;;
20609;SDS011;10463;52.378;9.688;2023-08-31T01:00:09;2.03;;;1.43;;
20609;SDS011;10463;52.378;9.688;2023-08-31T01:02:58;2.40;;;1.60;;
20609;SDS011;10463;52.378;9.688;2023-08-31T01:05:58;3.50;;;1.90;;
20609;SDS011;10463;52.378;9.688;2023-08-31T01:08:58;2.47;;;2.03;;
20609;SDS011;10463;52.378;9.688;2023-08-31T01:11:56;2.80;;;1.83;;
20609;SDS011;10463;52.378;9.688;2023-08-31T01:14:52;2.67;;;1.57;;
20609;SDS011;10463;52.378;9.688;2023-08-31T01:17:45;2.83;;;1.73;;
20609;SDS011;10463;52.378;9.688;2023-08-31T01:20:37;1.87;;;1.43;;
20609;SDS011;10463;52.378;9.688;2023-08-31T01:23:30;2.60;;;1.70;;
20609;SDS011;10463;52.378;9.688;2023-08-31T01:26:28;2.50;;;1.67;;
20609;SDS011;10463;52.378;9.688;2023-08-31T01:29:13;1.70;;;1.20;;
20609;SDS011;10463;52.378;9.688;2023-08-31T01:31:59;1.90;;;1.47;;
20609;SDS011;10463;52.378;9.688;2023-08-31T01:34:44;2.80;;;1.73;;
20609;SDS011;10463;52.378;9.688;2023-08-31T01:37:31;1.83;;;1.20;;
20609;SDS011;10463;52.378;9.688;2023-08-31T01:40:29;2.33;;;1.53;;
20609;SDS011;10463;52.378;9.688;2023-08-31T01:43:20;1.77;;;1.37;;
20609;SDS011;10463;52.378;9.688;2023-08-31T01:46:06;2.73;;;1.63;;
20609;SDS011;10463;52.378;9.688;2023-08-31T01:48:51;2.53;;;1.53;;
20609;SDS011;10463;52.378;9.688;2023-08-31T01:51:36;2.93;;;1.53;;
20609;SDS011;10463;52.378;9.688;2023-08-31T01:54:21;1.70;;;1.30;;
20609;SDS011;10463;52.378;9.688;2023-08-31T01:57:06;2.10;;;1.40;;
20609;SDS011;10463;52.378;9.688;2023-08-31T02:00:01;2.00;;;1.40;;
20609;SDS011;10463;52.378;9.688;2023-08-31T02:02:58;2.03;;;1.43;;
20609;SDS011;10463;52.378;9.688;2023-08-31T02:05:44;2.67;;;1.50;;
20609;SDS011;10463;52.378;9.688;2023-08-31T02:08:28;2.50;;;1.60;;
20609;SDS011;10463;52.378;9.688;2023-08-31T02:11:13;2.57;;;1.47;;
20609;SDS011;10463;52.378;9.688;2023-08-31T02:13:59;2.20;;;1.40;;
20609;SDS011;10463;52.378;9.688;2023-08-31T02:16:43;1.60;;;1.20;;
20609;SDS011;10463;52.378;9.688;2023-08-31T02:19:28;2.13;;;1.70;;
20609;SDS011;10463;52.378;9.688;2023-08-31T02:22:12;1.90;;;1.60;;
20609;SDS011;10463;52.378;9.688;2023-08-31T02:24:57;1.80;;;1.40;;
20609;SDS011;10463;52.378;9.688;2023-08-31T02:27:42;1.87;;;1.50;;
20609;SDS011;10463;52.378;9.688;2023-08-31T02:30:28;2.37;;;1.47;;
20609;SDS011;10463;52.378;9.688;2023-08-31T02:33:12;2.00;;;1.23;;
20609;SDS011;10463;52.378;9.688;2023-08-31T02:35:57;2.30;;;1.50;;
20609;SDS011;10463;52.378;9.688;2023-08-31T02:38:42;2.30;;;1.37;;
20609;SDS011;10463;52.378;9.688;2023-08-31T02:41:27;2.20;;;1.50;;
20609;SDS011;10463;52.378;9.688;2023-08-31T02:44:11;3.93;;;2.13;;
20609;SDS011;10463;52.378;9.688;2023-08-31T02:46:57;2.30;;;1.40;;
20609;SDS011;10463;52.378;9.688;2023-08-31T02:49:44;2.07;;;1.30;;
20609;SDS011;10463;52.378;9.688;2023-08-31T02:52:29;2.90;;;1.60;;
20609;SDS011;10463;52.378;9.688;2023-08-31T02:55:14;2.53;;;1.40;;
20609;SDS011;10463;52.378;9.688;2023-08-31T02:57:59;2.17;;;1.67;;
20609;SDS011;10463;52.378;9.688;2023-08-31T03:00:44;2.00;;;1.50;;
20609;SDS011;10463;52.378;9.688;2023-08-31T03:03:33;2.80;;;1.30;;
20609;SDS011;10463;52.378;9.688;2023-08-31T03:06:19;2.63;;;1.33;;
20609;SDS011;10463;52.378;9.688;2023-08-31T03:09:03;2.03;;;1.60;;
20609;SDS011;10463;52.378;9.688;2023-08-31T03:11:48;2.10;;;1.40;;
20609;SDS011;10463;52.378;9.688;2023-08-31T03:14:33;2.83;;;1.67;;
20609;SDS011;10463;52.378;9.688;2023-08-31T03:17:17;2.13;;;1.47;;
20609;SDS011;10463;52.378;9.688;2023-08-31T03:20:04;2.57;;;1.70;;
20609;SDS011;10463;52.378;9.688;2023-08-31T03:22:50;2.13;;;1.33;;
20609;SDS011;10463;52.378;9.688;2023-08-31T03:25:35;3.93;;;1.60;;
20609;SDS011;10463;52.378;9.688;2023-08-31T03:28:20;2.17;;;1.40;;
20609;SDS011;10463;52.378;9.688;2023-08-31T03:31:04;2.50;;;1.50;;
20609;SDS011;10463;52.378;9.688;2023-08-31T03:33:49;3.70;;;1.60;;
20609;SDS011;10463;52.378;9.688;2023-08-31T03:36:36;2.30;;;1.43;;
20609;SDS011;10463;52.378;9.688;2023-08-31T03:39:21;2.03;;;1.70;;
20609;SDS011;10463;52.378;9.688;2023-08-31T03:42:05;2.50;;;1.40;;
20609;SDS011;10463;52.378;9.688;2023-08-31T03:44:50;2.77;;;1.30;;
20609;SDS011;10463;52.378;9.688;2023-08-31T03:47:35;1.80;;;1.27;;
20609;SDS011;10463;52.378;9.688;2023-08-31T03:50:19;2.17;;;1.30;;
20609;SDS011;10463;52.378;9.688;2023-08-31T03:53:06;2.73;;;1.70;;
20609;SDS011;10463;52.378;9.688;2023-08-31T03:55:50;3.60;;;1.70;;
20609;SDS011;10463;52.378;9.688;2023-08-31T03:58:35;2.20;;;1.50;;
20609;SDS011;10463;52.378;9.688;2023-08-31T04:01:19;1.70;;;1.23;;
20609;SDS011;10463;52.378;9.688;2023-08-31T04:04:05;2.10;;;1.80;;
20609;SDS011;10463;52.378;9.688;2023-08-31T04:06:49;2.30;;;1.50;;
20609;SDS011;10463;52.378;9.688;2023-08-31T04:09:35;1.80;;;1.33;;
20609;SDS011;10463;52.378;9.688;2023-08-31T04:12:20;1.60;;;1.20;;
20609;SDS011;10463;52.378;9.688;2023-08-31T04:15:05;2.17;;;1.60;;
20609;SDS011;10463;52.378;9.688;2023-08-31T04:17:51;2.13;;;1.33;;
20609;SDS011;10463;52.378;9.688;2023-08-31T04:20:35;2.77;;;1.70;;
20609;SDS011;10463;52.378;9.688;2023-08-31T04:23:20;1.67;;;1.37;;
20609;SDS011;10463;52.378;9.688;2023-08-31T04:26:13;3.00;;;1.80;;
20609;SDS011;10463;52.378;9.688;2023-08-31T04:28:57;2.80;;;1.50;;
20609;SDS011;10463;52.378;9.688;2023-08-31T04:31:42;2.87;;;1.77;;
20609;SDS011;10463;52.378;9.688;2023-08-31T04:34:26;1.90;;;1.40;;
20609;SDS011;10463;52.378;9.688;2023-08-31T04:37:11;2.93;;;1.70;;
20609;SDS011;10463;52.378;9.688;2023-08-31T04:39:56;2.67;;;1.70;;
20609;SDS011;10463;52.378;9.688;2023-08-31T04:42:43;1.60;;;1.30;;
20609;SDS011;10463;52.378;9.688;2023-08-31T04:45:28;2.60;;;1.70;;
20609;SDS011;10463;52.378;9.688;2023-08-31T04:48:12;1.80;;;1.13;;
20609;SDS011;10463;52.378;9.688;2023-08-31T04:50:59;1.87;;;1.37;;
20609;SDS011;10463;52.378;9.688;2023-08-31T04:53:44;2.07;;;1.57;;
20609;SDS011;10463;52.378;9.688;2023-08-31T04:56:30;1.83;;;1.30;;
20609;SDS011;10463;52.378;9.688;2023-08-31T04:59:20;2.60;;;1.53;;
20609;SDS011;10463;52.378;9.688;2023-08-31T05:02:04;2.60;;;1.80;;
20609;SDS011;10463;52.378;9.688;2023-08-31T05:04:49;2.80;;;1.87;;
20609;SDS011;10463;52.378;9.688;2023-08-31T05:07:33;2.37;;;1.47;;
20609;SDS011;10463;52.378;9.688;2023-08-31T05:10:18;2.67;;;1.67;;
20609;SDS011;10463;52.378;9.688;2023-08-31T05:13:03;2.97;;;1.90;;
20609;SDS011;10463;52.378;9.688;2023-08-31T05:15:49;2.13;;;1.30;;
20609;SDS011;10463;52.378;9.688;2023-08-31T05:18:34;2.07;;;1.70;;
20609;SDS011;10463;52.378;9.688;2023-08-31T05:21:19;2.00;;;1.40;;
20609;SDS011;10463;52.378;9.688;2023-08-31T05:24:05;2.40;;;1.50;;
20609;SDS011;10463;52.378;9.688;2023-08-31T05:26:49;1.90;;;1.27;;
20609;SDS011;10463;52.378;9.688;2023-08-31T05:29:34;2.27;;;1.73;;
20609;SDS011;10463;52.378;9.688;2023-08-31T05:32:20;3.03;;;2.23;;
20609;SDS011;10463;52.378;9.688;2023-08-31T05:35:05;2.50;;;1.60;;
20609;SDS011;10463;52.378;9.688;2023-08-31T05:37:51;3.47;;;2.57;;
20609;SDS011;10463;52.378;9.688;2023-08-31T05:40:35;2.03;;;1.30;;
20609;SDS011;10463;52.378;9.688;2023-08-31T05:43:20;2.80;;;1.40;;
20609;SDS011;10463;52.378;9.688;2023-08-31T05:46:04;4.20;;;2.03;;
20609;SDS011;10463;52.378;9.688;2023-08-31T05:48:50;2.63;;;1.80;;
20609;SDS011;10463;52.378;9.688;2023-08-31T05:51:36;3.27;;;2.00;;
20609;SDS011;10463;52.378;9.688;2023-08-31T05:54:21;2.80;;;1.80;;
20609;SDS011;10463;52.378;9.688;2023-08-31T05:57:05;2.87;;;1.93;;
20609;SDS011;10463;52.378;9.688;2023-08-31T05:59:50;3.43;;;1.60;;
20609;SDS011;10463;52.378;9.688;2023-08-31T06:02:35;2.33;;;1.67;;
20609;SDS011;10463;52.378;9.688;2023-08-31T06:05:21;3.17;;;2.00;;
20609;SDS011;10463;52.378;9.688;2023-08-31T06:08:05;2.63;;;1.90;;
20609;SDS011;10463;52.378;9.688;2023-08-31T06:10:50;4.30;;;2.40;;
20609;SDS011;10463;52.378;9.688;2023-08-31T06:13:35;2.10;;;1.80;;
20609;SDS011;10463;52.378;9.688;2023-08-31T06:16:19;4.03;;;2.53;;
20609;SDS011;10463;52.378;9.688;2023-08-31T06:19:04;2.70;;;2.20;;
20609;SDS011;10463;52.378;9.688;2023-08-31T06:21:50;3.07;;;2.20;;
20609;SDS011;10463;52.378;9.688;2023-08-31T06:24:35;2.30;;;2.03;;
20609;SDS011;10463;52.378;9.688;2023-08-31T06:27:21;2.87;;;2.57;;
20609;SDS011;10463;52.378;9.688;2023-08-31T06:30:06;3.77;;;2.50;;
20609;SDS011;10463;52.378;9.688;2023-08-31T06:32:52;2.30;;;2.10;;
20609;SDS011;10463;52.378;9.688;2023-08-31T06:35:36;2.80;;;2.20;;
20609;SDS011;10463;52.378;9.688;2023-08-31T06:38:22;4.50;;;2.90;;
20609;SDS011;10463;52.378;9.688;2023-08-31T06:41:07;3.10;;;2.53;;
20609;SDS011;10463;52.378;9.688;2023-08-31T06:43:53;3.50;;;2.80;;
20609;SDS011;10463;52.378;9.688;2023-08-31T06:46:37;3.40;;;3.10;;
20609;SDS011;10463;52.378;9.688;2023-08-31T06:49:22;4.47;;;2.83;;
20609;SDS011;10463;52.378;9.688;2023-08-31T06:52:08;3.13;;;2.63;;
20609;SDS011;10463;52.378;9.688;2023-08-31T06:54:54;3.63;;;3.13;;
20609;SDS011;10463;52.378;9.688;2023-08-31T06:57:40;3.20;;;2.90;;
20609;SDS011;10463;52.378;9.688;2023-08-31T07:00:25;3.90;;;3.23;;
20609;SDS011;10463;52.378;9.688;2023-08-31T07:03:10;4.07;;;3.33;;
20609;SDS011;10463;52.378;9.688;2023-08-31T07:05:54;3.80;;;3.40;;
20609;SDS011;10463;52.378;9.688;2023-08-31T07:08:39;3.90;;;3.50;;
20609;SDS011;10463;52.378;9.688;2023-08-31T07:11:27;3.73;;;3.20;;
20609;SDS011;10463;52.378;9.688;2023-08-31T07:14:11;4.27;;;3.73;;
20609;SDS011;10463;52.378;9.688;2023-08-31T07:16:56;4.40;;;4.00;;
20609;SDS011;10463;52.378;9.688;2023-08-31T07:19:40;4.30;;;3.70;;
20609;SDS011;10463;52.378;9.688;2023-08-31T07:22:25;6.03;;;3.63;;
20609;SDS011;10463;52.378;9.688;2023-08-31T07:25:09;4.10;;;3.50;;
20609;SDS011;10463;52.378;9.688;2023-08-31T07:27:55;4.20;;;3.77;;
20609;SDS011;10463;52.378;9.688;2023-08-31T07:30:40;5.07;;;3.93;;
20609;SDS011;10463;52.378;9.688;2023-08-31T07:33:24;5.10;;;3.80;;
20609;SDS011;10463;52.378;9.688;2023-08-31T07:36:09;4.03;;;3.60;;
20609;SDS011;10463;52.378;9.688;2023-08-31T07:38:53;3.83;;;3.53;;
20609;SDS011;10463;52.378;9.688;2023-08-31T07:41:38;3.97;;;3.67;;
20609;SDS011;10463;52.378;9.688;2023-08-31T07:44:24;4.73;;;4.30;;
20609;SDS011;10463;52.378;9.688;2023-08-31T07:47:09;4.20;;;3.80;;
20609;SDS011;10463;52.378;9.688;2023-08-31T07:49:54;4.10;;;3.60;;
20609;SDS011;10463;52.378;9.688;2023-08-31T07:52:38;4.00;;;3.70;;
20609;SDS011;10463;52.378;9.688;2023-08-31T07:55:23;3.70;;;3.40;;
20609;SDS011;10463;52.378;9.688;2023-08-31T07:58:07;4.40;;;4.00;;
20609;SDS011;10463;52.378;9.688;2023-08-31T08:00:54;3.50;;;3.20;;
20609;SDS011;10463;52.378;9.688;2023-08-31T08:03:39;4.27;;;2.90;;
20609;SDS011;10463;52.378;9.688;2023-08-31T08:06:24;3.70;;;3.40;;
20609;SDS011;10463;52.378;9.688;2023-08-31T08:09:09;3.73;;;3.10;;
20609;SDS011;10463;52.378;9.688;2023-08-31T08:11:54;3.50;;;3.17;;
20609;SDS011;10463;52.378;9.688;2023-08-31T08:14:38;3.60;;;3.30;;
20609;SDS011;10463;52.378;9.688;2023-08-31T08:17:24;3.40;;;3.10;;
20609;SDS011;10463;52.378;9.688;2023-08-31T08:20:10;3.43;;;3.13;;
20609;SDS011;10463;52.378;9.688;2023-08-31T08:22:55;3.30;;;3.00;;
20609;SDS011;10463;52.378;9.688;2023-08-31T08:25:42;4.70;;;3.50;;
20609;SDS011;10463;52.378;9.688;2023-08-31T08:28:27;3.43;;;3.13;;
20609;SDS011;10463;52.378;9.688;2023-08-31T08:31:12;3.47;;;3.00;;
20609;SDS011;10463;52.378;9.688;2023-08-31T08:33:58;3.30;;;2.83;;
20609;SDS011;10463;52.378;9.688;2023-08-31T08:36:42;3.20;;;2.67;;
20609;SDS011;10463;52.378;9.688;2023-08-31T08:39:27;4.10;;;3.70;;
20609;SDS011;10463;52.378;9.688;2023-08-31T08:42:12;3.40;;;2.93;;
20609;SDS011;10463;52.378;9.688;2023-08-31T08:44:57;3.17;;;2.87;;
20609;SDS011;10463;52.378;9.688;2023-08-31T08:47:42;3.07;;;2.77;;
20609;SDS011;10463;52.378;9.688;2023-08-31T08:50:30;3.30;;;3.03;;
20609;SDS011;10463;52.378;9.688;2023-08-31T08:53:16;3.77;;;3.27;;
20609;SDS011;10463;52.378;9.688;2023-08-31T08:56:00;3.27;;;2.60;;
20609;SDS011;10463;52.378;9.688;2023-08-31T08:58:45;3.10;;;2.80;;
20609;SDS011;10463;52.378;9.688;2023-08-31T09:01:30;3.37;;;3.00;;
20609;SDS011;10463;52.378;9.688;2023-08-31T09:04:15;3.30;;;2.50;;
20609;SDS011;10463;52.378;9.688;2023-08-31T09:07:02;6.20;;;2.90;;
20609;SDS011;10463;52.378;9.688;2023-08-31T09:09:50;4.00;;;2.87;;
20609;SDS011;10463;52.378;9.688;2023-08-31T09:12:36;3.70;;;3.03;;
20609;SDS011;10463;52.378;9.688;2023-08-31T09:15:23;4.20;;;3.40;;
20609;SDS011;10463;52.378;9.688;2023-08-31T09:18:14;3.73;;;3.43;;
20609;SDS011;10463;52.378;9.688;2023-08-31T09:21:00;3.47;;;3.17;;
20609;SDS011;10463;52.378;9.688;2023-08-31T09:23:55;3.53;;;3.20;;
20609;SDS011;10463;52.378;9.688;2023-08-31T09:26:43;3.60;;;3.30;;
20609;SDS011;10463;52.378;9.688;2023-08-31T09:29:28;4.33;;;3.73;;
20609;SDS011;10463;52.378;9.688;2023-08-31T09:32:16;3.70;;;3.30;;
20609;SDS011;10463;52.378;9.688;2023-08-31T09:35:01;4.63;;;3.50;;
20609;SDS011;10463;52.378;9.688;2023-08-31T09:37:57;3.97;;;3.50;;
20609;SDS011;10463;52.378;9.688;2023-08-31T09:40:43;3.37;;;3.00;;
20609;SDS011;10463;52.378;9.688;2023-08-31T09:43:27;3.50;;;3.20;;
20609;SDS011;10463;52.378;9.688;2023-08-31T09:46:12;4.70;;;3.40;;
20609;SDS011;10463;52.378;9.688;2023-08-31T09:48:57;3.47;;;3.17;;
20609;SDS011;10463;52.378;9.688;2023-08-31T09:51:45;3.40;;;3.10;;
20609;SDS011;10463;52.378;9.688;2023-08-31T09:54:31;3.40;;;3.10;;
20609;SDS011;10463;52.378;9.688;2023-08-31T09:57:20;3.47;;;3.17;;
20609;SDS011;10463;52.378;9.688;2023-08-31T10:00:08;3.27;;;2.97;;
20609;SDS011;10463;52.378;9.688;2023-08-31T10:02:53;4.13;;;3.10;;
20609;SDS011;10463;52.378;9.688;2023-08-31T10:05:42;3.60;;;3.30;;
20609;SDS011;10463;52.378;9.688;2023-08-31T10:08:28;3.83;;;3.37;;
20609;SDS011;10463;52.378;9.688;2023-08-31T10:11:15;3.77;;;3.03;;
20609;SDS011;10463;52.378;9.688;2023-08-31T10:14:02;3.93;;;3.23;;
20609;SDS011;10463;52.378;9.688;2023-08-31T10:16:48;3.67;;;2.93;;
20609;SDS011;10463;52.378;9.688;2023-08-31T10:19:36;3.73;;;3.43;;
20609;SDS011;10463;52.378;9.688;2023-08-31T10:22:21;3.30;;;3.00;;
20609;SDS011;10463;52.378;9.688;2023-08-31T10:25:06;3.90;;;3.00;;
20609;SDS011;10463;52.378;9.688;2023-08-31T10:27:52;2.67;;;2.47;;
20609;SDS011;10463;52.378;9.688;2023-08-31T10:30:39;3.20;;;2.90;;
20609;SDS011;10463;52.378;9.688;2023-08-31T10:33:24;2.93;;;2.67;;
20609;SDS011;10463;52.378;9.688;2023-08-31T10:36:12;3.37;;;2.90;;
20609;SDS011;10463;52.378;9.688;2023-08-31T10:39:00;3.23;;;2.93;;
20609;SDS011;10463;52.378;9.688;2023-08-31T10:41:53;3.90;;;3.17;;
20609;SDS011;10463;52.378;9.688;2023-08-31T10:44:41;4.43;;;3.10;;
20609;SDS011;10463;52.378;9.688;2023-08-31T10:47:37;2.80;;;2.50;;
20609;SDS011;10463;52.378;9.688;2023-08-31T10:50:24;3.77;;;2.83;;
20609;SDS011;10463;52.378;9.688;2023-08-31T10:53:09;3.87;;;3.20;;
20609;SDS011;10463;52.378;9.688;2023-08-31T10:55:54;3.70;;;3.40;;
20609;SDS011;10463;52.378;9.688;2023-08-31T10:58:39;3.03;;;2.80;;
20609;SDS011;10463;52.378;9.688;2023-08-31T11:01:51;3.40;;;3.10;;
20609;SDS011;10463;52.378;9.688;2023-08-31T11:04:54;4.77;;;4.37;;
20609;SDS011;10463;52.378;9.688;2023-08-31T11:07:39;3.93;;;3.50;;
20609;SDS011;10463;52.378;9.688;2023-08-31T11:10:25;4.30;;;3.90;;
20609;SDS011;10463;52.378;9.688;2023-08-31T11:13:15;3.70;;;3.40;;
20609;SDS011;10463;52.378;9.688;2023-08-31T11:16:03;4.73;;;3.40;;
20609;SDS011;10463;52.378;9.688;2023-08-31T11:18:48;4.80;;;4.30;;
20609;SDS011;10463;52.378;9.688;2023-08-31T11:21:37;4.10;;;3.70;;
20609;SDS011;10463;52.378;9.688;2023-08-31T11:24:21;5.70;;;3.60;;
20609;SDS011;10463;52.378;9.688;2023-08-31T11:27:10;3.60;;;3.17;;
20609;SDS011;10463;52.378;9.688;2023-08-31T11:29:54;4.60;;;3.20;;
20609;SDS011;10463;52.378;9.688;2023-08-31T11:32:44;3.73;;;3.00;;
20609;SDS011;10463;52.378;9.688;2023-08-31T11:35:33;4.30;;;3.50;;
20609;SDS011;10463;52.378;9.688;2023-08-31T11:38:20;3.63;;;3.33;;
20609;SDS011;10463;52.378;9.688;2023-08-31T11:41:05;3.50;;;3.20;;
20609;SDS011;10463;52.378;9.688;2023-08-31T11:43:50;4.20;;;3.17;;
20609;SDS011;10463;52.378;9.688;2023-08-31T11:46:35;3.90;;;3.20;;
20609;SDS011;10463;52.378;9.688;2023-08-31T11:49:20;4.10;;;3.03;;
20609;SDS011;10463;52.378;9.688;2023-08-31T11:52:05;3.70;;;3.30;;
20609;SDS011;10463;52.378;9.688;2023-08-31T11:54:53;4.97;;;3.10;;
20609;SDS011;10463;52.378;9.688;2023-08-31T11:57:38;2.80;;;2.60;;
20609;SDS011;10463;52.378;9.688;2023-08-31T12:00:23;3.40;;;2.50;;
20609;SDS011;10463;52.378;9.688;2023-08-31T12:03:08;5.00;;;2.80;;
20609;SDS011;10463;52.378;9.688;2023-08-31T12:05:54;2.60;;;2.40;;
20609;SDS011;10463;52.378;9.688;2023-08-31T12:08:41;2.60;;;2.40;;
20609;SDS011;10463;52.378;9.688;2023-08-31T12:11:27;5.20;;;2.50;;
20609;SDS011;10463;52.378;9.688;2023-08-31T12:14:19;3.07;;;2.57;;
20609;SDS011;10463;52.378;9.688;2023-08-31T12:17:06;3.03;;;2.27;;
20609;SDS011;10463;52.378;9.688;2023-08-31T12:19:51;2.73;;;2.13;;
20609;SDS011;10463;52.378;9.688;2023-08-31T12:22:36;3.50;;;2.03;;
20609;SDS011;10463;52.378;9.688;2023-08-31T12:25:21;3.03;;;2.17;;
20609;SDS011;10463;52.378;9.688;2023-08-31T12:28:07;2.90;;;2.13;;
20609;SDS011;10463;52.378;9.688;2023-08-31T12:30:53;2.77;;;1.70;;
20609;SDS011;10463;52.378;9.688;2023-08-31T12:33:40;3.70;;;1.67;;
20609;SDS011;10463;52.378;9.688;2023-08-31T12:36:24;4.63;;;1.80;;
20609;SDS011;10463;52.378;9.688;2023-08-31T12:39:10;2.73;;;1.83;;
20609;SDS011;10463;52.378;9.688;2023-08-31T12:41:55;2.20;;;1.73;;
20609;SDS011;10463;52.378;9.688;2023-08-31T12:44:41;2.70;;;1.80;;
20609;SDS011;10463;52.378;9.688;2023-08-31T12:47:26;3.77;;;1.60;;
20609;SDS011;10463;52.378;9.688;2023-08-31T12:50:10;2.83;;;1.77;;
20609;SDS011;10463;52.378;9.688;2023-08-31T12:52:55;2.37;;;1.43;;
20609;SDS011;10463;52.378;9.688;2023-08-31T12:55:39;2.70;;;1.80;;
20609;SDS011;10463;52.378;9.688;2023-08-31T12:58:24;1.80;;;1.20;;
20609;SDS011;10463;52.378;9.688;2023-08-31T13:01:10;2.80;;;1.60;;
20609;SDS011;10463;52.378;9.688;2023-08-31T13:03:54;3.00;;;1.73;;
20609;SDS011;10463;52.378;9.688;2023-08-31T13:06:39;2.23;;;1.63;;
20609;SDS011;10463;52.378;9.688;2023-08-31T13:09:23;2.83;;;1.70;;
20609;SDS011;10463;52.378;9.688;2023-08-31T13:12:08;2.20;;;1.50;;
20609;SDS011;10463;52.378;9.688;2023-08-31T13:14:52;2.70;;;1.70;;
20609;SDS011;10463;52.378;9.688;2023-08-31T13:17:39;1.90;;;1.30;;
20609;SDS011;10463;52.378;9.688;2023-08-31T13:20:25;2.70;;;1.70;;
20609;SDS011;10463;52.378;9.688;2023-08-31T13:23:10;2.83;;;1.60;;
20609;SDS011;10463;52.378;9.688;2023-08-31T13:25:55;2.90;;;1.53;;
20609;SDS011;10463;52.378;9.688;2023-08-31T13:28:40;2.13;;;1.40;;
20609;SDS011;10463;52.378;9.688;2023-08-31T13:31:25;3.93;;;1.87;;
20609;SDS011;10463;52.378;9.688;2023-08-31T13:34:10;2.87;;;2.07;;
20609;SDS011;10463;52.378;9.688;2023-08-31T13:36:55;3.00;;;2.47;;
20609;SDS011;10463;52.378;9.688;2023-08-31T13:39:40;4.80;;;2.70;;
20609;SDS011;10463;52.378;9.688;2023-08-31T13:42:24;2.87;;;2.07;;
20609;SDS011;10463;52.378;9.688;2023-08-31T13:45:09;3.90;;;2.60;;
20609;SDS011;10463;52.378;9.688;2023-08-31T13:47:54;3.00;;;2.23;;
20609;SDS011;10463;52.378;9.688;2023-08-31T13:50:41;3.10;;;2.30;;
20609;SDS011;10463;52.378;9.688;2023-08-31T13:53:26;2.27;;;1.93;;
20609;SDS011;10463;52.378;9.688;2023-08-31T13:56:10;2.80;;;2.30;;
20609;SDS011;10463;52.378;9.688;2023-08-31T13:58:55;3.00;;;2.30;;
20609;SDS011;10463;52.378;9.688;2023-08-31T14:01:39;2.67;;;2.13;;
20609;SDS011;10463;52.378;9.688;2023-08-31T14:04:24;3.57;;;2.47;;
20609;SDS011;10463;52.378;9.688;2023-08-31T14:07:10;3.23;;;2.40;;
20609;SDS011;10463;52.378;9.688;2023-08-31T14:09:55;2.63;;;1.47;;
20609;SDS011;10463;52.378;9.688;2023-08-31T14:12:40;2.50;;;1.77;;
20609;SDS011;10463;52.378;9.688;2023-08-31T14:15:24;3.93;;;2.40;;
20609;SDS011;10463;52.378;9.688;2023-08-31T14:18:09;4.80;;;2.07;;
20609;SDS011;10463;52.378;9.688;2023-08-31T14:20:53;2.60;;;1.60;;
20609;SDS011;10463;52.378;9.688;2023-08-31T14:23:39;2.60;;;1.90;;
20609;SDS011;10463;52.378;9.688;2023-08-31T14:26:24;2.40;;;2.03;;
20609;SDS011;10463;52.378;9.688;2023-08-31T14:29:09;3.13;;;1.80;;
20609;SDS011;10463;52.378;9.688;2023-08-31T14:31:53;2.97;;;2.10;;
20609;SDS011;10463;52.378;9.688;2023-08-31T14:34:39;3.00;;;2.20;;
20609;SDS011;10463;52.378;9.688;2023-08-31T14:37:23;2.83;;;2.40;;
20609;SDS011;10463;52.378;9.688;2023-08-31T14:40:11;2.77;;;2.47;;
20609;SDS011;10463;52.378;9.688;2023-08-31T14:42:56;2.77;;;2.47;;
20609;SDS011;10463;52.378;9.688;2023-08-31T14:45:40;2.50;;;2.00;;
20609;SDS011;10463;52.378;9.688;2023-08-31T14:48:25;5.20;;;2.10;;
20609;SDS011;10463;52.378;9.688;2023-08-31T14:51:09;4.23;;;3.30;;
20609;SDS011;10463;52.378;9.688;2023-08-31T14:53:54;3.80;;;2.37;;
20609;SDS011;10463;52.378;9.688;2023-08-31T14:56:40;2.93;;;2.37;;
20609;SDS011;10463;52.378;9.688;2023-08-31T14:59:24;3.20;;;1.97;;
20609;SDS011;10463;52.378;9.688;2023-08-31T15:02:09;3.13;;;2.00;;
20609;SDS011;10463;52.378;9.688;2023-08-31T15:04:54;2.93;;;2.10;;
20609;SDS011;10463;52.378;9.688;2023-08-31T15:07:39;3.23;;;2.10;;
20609;SDS011;10463;52.378;9.688;2023-08-31T15:10:23;2.80;;;1.57;;
20609;SDS011;10463;52.378;9.688;2023-08-31T15:13:09;3.87;;;1.80;;
20609;SDS011;10463;52.378;9.688;2023-08-31T15:15:54;2.53;;;1.50;;
20609;SDS011;10463;52.378;9.688;2023-08-31T15:18:38;2.37;;;1.43;;
20609;SDS011;10463;52.378;9.688;2023-08-31T15:21:26;5.30;;;1.97;;
20609;SDS011;10463;52.378;9.688;2023-08-31T15:24:10;2.77;;;1.73;;
20609;SDS011;10463;52.378;9.688;2023-08-31T15:26:55;2.80;;;1.33;;
20609;SDS011;10463;52.378;9.688;2023-08-31T15:29:42;2.10;;;1.40;;
20609;SDS011;10463;52.378;9.688;2023-08-31T15:32:28;2.17;;;1.37;;
20609;SDS011;10463;52.378;9.688;2023-08-31T15:35:13;1.90;;;1.13;;
20609;SDS011;10463;52.378;9.688;2023-08-31T15:38:00;2.30;;;1.50;;
20609;SDS011;10463;52.378;9.688;2023-08-31T15:40:48;1.70;;;1.20;;
20609;SDS011;10463;52.378;9.688;2023-08-31T15:43:34;2.40;;;1.30;;
20609;SDS011;10463;52.378;9.688;2023-08-31T15:46:22;2.77;;;1.27;;
20609;SDS011;10463;52.378;9.688;2023-08-31T15:49:07;4.07;;;1.77;;
20609;SDS011;10463;52.378;9.688;2023-08-31T15:51:51;2.40;;;1.43;;
20609;SDS011;10463;52.378;9.688;2023-08-31T15:54:36;2.70;;;1.40;;
20609;SDS011;10463;52.378;9.688;2023-08-31T15:57:20;2.73;;;1.37;;
20609;SDS011;10463;52.378;9.688;2023-08-31T16:00:06;2.37;;;1.40;;
20609;SDS011;10463;52.378;9.688;2023-08-31T16:02:56;1.70;;;1.20;;
20609;SDS011;10463;52.378;9.688;2023-08-31T16:05:41;2.57;;;1.40;;
20609;SDS011;10463;52.378;9.688;2023-08-31T16:08:26;1.57;;;1.10;;
20609;SDS011;10463;52.378;9.688;2023-08-31T16:11:12;2.20;;;1.10;;
20609;SDS011;10463;52.378;9.688;2023-08-31T16:13:56;1.97;;;1.20;;
20609;SDS011;10463;52.378;9.688;2023-08-31T16:16:41;3.27;;;1.13;;
20609;SDS011;10463;52.378;9.688;2023-08-31T16:19:27;2.07;;;1.30;;
20609;SDS011;10463;52.378;9.688;2023-08-31T16:22:12;2.23;;;1.50;;
20609;SDS011;10463;52.378;9.688;2023-08-31T16:24:56;2.30;;;1.23;;
20609;SDS011;10463;52.378;9.688;2023-08-31T16:27:44;3.07;;;1.47;;
20609;SDS011;10463;52.378;9.688;2023-08-31T16:30:29;2.77;;;1.60;;
20609;SDS011;10463;52.378;9.688;2023-08-31T16:33:13;2.10;;;1.30;;
20609;SDS011;10463;52.378;9.688;2023-08-31T16:36:00;2.20;;;1.20;;
20609;SDS011;10463;52.378;9.688;2023-08-31T16:38:49;2.80;;;1.40;;
20609;SDS011;10463;52.378;9.688;2023-08-31T16:41:34;2.40;;;1.50;;